createdAt,value
2023-04-20T00:02:09.406Z,1.48
2023-04-20T00:04:37.802Z,1.48
2023-04-20T00:07:06.475Z,1.17
2023-04-20T00:09:34.797Z,1.60
2023-04-20T00:12:03.233Z,1.48
2023-04-20T00:14:31.823Z,1.98
2023-04-20T00:17:01.573Z,1.40
2023-04-20T00:19:33.268Z,1.23
2023-04-20T00:22:01.955Z,1.25
2023-04-20T00:24:30.364Z,1.25
2023-04-20T00:26:58.658Z,1.40
2023-04-20T00:29:27.023Z,1.50
2023-04-20T00:31:55.318Z,1.33
2023-04-20T00:34:25.019Z,1.10
2023-04-20T00:36:53.340Z,1.75
2023-04-20T00:39:21.738Z,1.52
2023-04-20T00:41:50.028Z,1.67
2023-04-20T00:44:18.297Z,1.67
2023-04-20T00:46:46.669Z,1.55
2023-04-20T00:49:15.341Z,1.27
2023-04-20T00:51:45.302Z,2.60
2023-04-20T00:54:13.673Z,1.48
2023-04-20T00:56:42.024Z,1.20
2023-04-20T00:59:10.460Z,0.70
2023-04-20T01:01:38.835Z,1.42
2023-04-20T01:04:07.968Z,1.60
2023-04-20T01:06:36.647Z,1.27
2023-04-20T01:09:06.291Z,1.30
2023-04-20T01:11:34.565Z,1.55
2023-04-20T01:14:02.833Z,1.38
2023-04-20T01:16:32.026Z,1.10
2023-04-20T01:19:00.434Z,0.75
2023-04-20T01:21:28.750Z,1.65
2023-04-20T01:23:58.456Z,1.55
2023-04-20T01:26:26.855Z,1.25
2023-04-20T01:28:55.138Z,1.08
2023-04-20T01:31:23.426Z,1.10
2023-04-20T01:33:52.168Z,1.92
2023-04-20T01:36:20.451Z,1.25
2023-04-20T01:38:48.735Z,1.33
2023-04-20T01:41:18.396Z,1.35
2023-04-20T01:43:46.706Z,1.67
2023-04-20T01:46:15.016Z,1.45
2023-04-20T01:48:43.379Z,1.85
2023-04-20T01:51:11.699Z,1.13
2023-04-20T01:53:40.061Z,1.20
2023-04-20T01:56:08.424Z,1.33
2023-04-20T01:58:38.072Z,1.02
2023-04-20T02:01:06.431Z,1.60
2023-04-20T02:03:34.897Z,1.40
2023-04-20T02:06:03.350Z,1.55
2023-04-20T02:08:31.650Z,1.88
2023-04-20T02:10:59.937Z,2.08
2023-04-20T02:13:28.188Z,1.48
2023-04-20T02:15:58.050Z,1.65
2023-04-20T02:18:26.316Z,2.28
2023-04-20T02:20:54.592Z,1.17
2023-04-20T02:23:22.865Z,1.83
2023-04-20T02:25:51.173Z,1.48
2023-04-20T02:28:19.468Z,1.52
2023-04-20T02:30:47.825Z,2.20
2023-04-20T02:33:17.584Z,1.27
2023-04-20T02:35:45.842Z,1.27
2023-04-20T02:38:14.390Z,0.98
2023-04-20T02:40:42.673Z,1.23
2023-04-20T02:43:10.969Z,1.23
2023-04-20T02:45:39.261Z,1.95
2023-04-20T02:48:07.791Z,2.80
2023-04-20T02:50:38.396Z,0.98
2023-04-20T02:53:06.766Z,1.50
2023-04-20T02:55:35.098Z,1.13
2023-04-20T02:58:03.431Z,1.73
2023-04-20T03:00:31.793Z,0.90
2023-04-20T03:03:00.219Z,1.23
2023-04-20T03:05:28.667Z,0.88
2023-04-20T03:07:58.524Z,1.55
2023-04-20T03:10:26.852Z,0.88
2023-04-20T03:12:55.133Z,1.50
2023-04-20T03:15:23.393Z,1.42
2023-04-20T03:17:51.770Z,1.50
2023-04-20T03:20:20.691Z,1.73
2023-04-20T03:22:48.932Z,1.05
2023-04-20T03:25:18.693Z,1.60
2023-04-20T03:27:47.750Z,1.63
2023-04-20T03:30:16.337Z,2.28
2023-04-20T03:32:45.164Z,1.23
2023-04-20T03:35:13.801Z,1.77
2023-04-20T03:37:42.082Z,1.88
2023-04-20T03:40:11.121Z,1.73
2023-04-20T03:42:40.849Z,2.28
2023-04-20T03:45:09.523Z,1.67
2023-04-20T03:47:37.895Z,1.98
2023-04-20T03:50:06.794Z,2.22
2023-04-20T03:52:35.075Z,1.75
2023-04-20T03:55:03.396Z,1.48
2023-04-20T03:57:31.734Z,1.38
2023-04-20T04:00:01.451Z,1.60
2023-04-20T04:02:29.932Z,0.95
2023-04-20T04:04:58.410Z,1.25
2023-04-20T04:07:26.851Z,0.77
2023-04-20T04:09:55.139Z,1.05
2023-04-20T04:12:23.449Z,0.85
2023-04-20T04:14:51.708Z,1.40
2023-04-20T04:17:21.367Z,1.25
2023-04-20T04:19:49.648Z,0.75
2023-04-20T04:22:17.948Z,1.73
2023-04-20T04:24:46.318Z,1.58
2023-04-20T04:27:15.610Z,1.25
2023-04-20T04:29:44.767Z,1.70
2023-04-20T04:32:13.565Z,0.82
2023-04-20T04:34:44.474Z,1.60
2023-04-20T04:37:13.057Z,1.05
2023-04-20T04:39:41.425Z,0.50
2023-04-20T04:42:09.701Z,1.27
2023-04-20T04:44:38.042Z,1.02
2023-04-20T04:47:06.526Z,0.80
2023-04-20T04:49:35.788Z,0.55
2023-04-20T04:52:05.689Z,0.68
2023-04-20T04:54:34.047Z,1.15
2023-04-20T04:57:02.424Z,0.82
2023-04-20T04:59:30.843Z,0.90
2023-04-20T05:01:59.250Z,0.93
2023-04-20T05:04:27.768Z,1.25
2023-04-20T05:06:56.142Z,1.08
2023-04-20T05:09:26.555Z,1.30
2023-04-20T05:11:57.433Z,1.38
2023-04-20T05:14:25.818Z,1.02
2023-04-20T05:16:54.087Z,1.33
2023-04-20T05:19:22.363Z,1.10
2023-04-20T05:21:50.678Z,1.92
2023-04-20T05:24:19.496Z,0.55
2023-04-20T05:26:49.144Z,1.55
2023-04-20T05:29:17.796Z,1.30
2023-04-20T05:31:46.363Z,1.27
2023-04-20T05:34:14.685Z,1.88
2023-04-20T05:36:43.008Z,1.17
2023-04-20T05:39:11.625Z,0.93
2023-04-20T05:41:39.913Z,1.27
2023-04-20T05:44:09.601Z,0.82
2023-04-20T05:46:38.017Z,1.00
2023-04-20T05:49:07.218Z,2.05
2023-04-20T05:51:35.556Z,0.95
2023-04-20T05:54:04.023Z,1.20
2023-04-20T05:56:32.288Z,1.00
2023-04-20T05:59:01.042Z,1.27
2023-04-20T06:01:30.752Z,0.90
2023-04-20T06:03:59.373Z,1.70
2023-04-20T06:06:28.103Z,1.02
2023-04-20T06:08:58.115Z,1.23
2023-04-20T06:11:26.445Z,0.80
2023-04-20T06:13:54.804Z,0.70
2023-04-20T06:16:23.148Z,0.90
2023-04-20T06:18:52.885Z,0.50
2023-04-20T06:21:21.316Z,0.50
2023-04-20T06:23:49.606Z,0.75
2023-04-20T06:26:17.884Z,1.05
2023-04-20T06:28:47.392Z,1.80
2023-04-20T06:31:15.738Z,1.13
2023-04-20T06:33:44.155Z,1.25
2023-04-20T06:36:13.907Z,1.23
2023-04-20T06:38:42.227Z,0.90
2023-04-20T06:41:10.490Z,0.50
2023-04-20T06:43:39.219Z,0.75
2023-04-20T06:46:07.922Z,2.20
2023-04-20T06:48:36.293Z,0.90
2023-04-20T06:51:04.635Z,0.93
2023-04-20T06:53:34.359Z,1.05
2023-04-20T06:56:02.712Z,1.52
2023-04-20T06:58:30.984Z,0.60
2023-04-20T07:00:59.303Z,1.08
2023-04-20T07:03:27.729Z,1.23
2023-04-20T07:05:56.259Z,0.80
2023-04-20T07:08:24.802Z,0.50
2023-04-20T07:10:54.504Z,0.70
2023-04-20T07:13:22.776Z,1.25
2023-04-20T07:15:51.204Z,1.23
2023-04-20T07:18:19.591Z,0.73
2023-04-20T07:20:47.958Z,1.20
2023-04-20T07:23:16.256Z,0.95
2023-04-20T07:25:44.592Z,0.88
2023-04-20T07:28:14.294Z,0.70
2023-04-20T07:30:42.628Z,0.90
2023-04-20T07:33:11.817Z,1.02
2023-04-20T07:35:40.210Z,1.30
2023-04-20T07:38:08.658Z,1.27
2023-04-20T07:40:37.043Z,1.08
2023-04-20T07:43:05.584Z,1.23
2023-04-20T07:45:35.357Z,1.25
2023-04-20T07:48:05.557Z,1.20
2023-04-20T07:50:34.048Z,1.42
2023-04-20T07:53:02.687Z,1.27
2023-04-20T07:55:31.139Z,0.98
2023-04-20T07:58:00.632Z,1.30
2023-04-20T08:00:29.122Z,1.92
2023-04-20T08:02:59.441Z,1.25
2023-04-20T08:05:28.173Z,1.40
2023-04-20T08:07:56.578Z,1.30
2023-04-20T08:10:25.023Z,0.70
2023-04-20T08:12:53.575Z,1.08
2023-04-20T08:15:21.826Z,1.25
2023-04-20T08:17:50.231Z,1.17
2023-04-20T08:20:19.908Z,0.88
2023-04-20T08:22:49.344Z,0.80
2023-04-20T08:25:18.125Z,1.35
2023-04-20T08:27:46.429Z,1.17
2023-04-20T08:30:14.946Z,1.42
2023-04-20T08:32:43.500Z,1.23
2023-04-20T08:35:11.904Z,1.17
2023-04-20T08:37:42.094Z,1.15
2023-04-20T08:40:11.102Z,1.10
2023-04-20T08:42:39.426Z,0.43
2023-04-20T08:45:08.154Z,1.00
2023-04-20T08:47:36.708Z,1.38
2023-04-20T08:50:06.233Z,0.93
2023-04-20T08:52:35.678Z,1.17
2023-04-20T08:55:05.522Z,0.95
2023-04-20T08:57:33.818Z,1.83
2023-04-20T09:00:02.191Z,0.60
2023-04-20T09:02:30.687Z,0.90
2023-04-20T09:05:06.029Z,1.25
2023-04-20T09:07:34.496Z,0.77
2023-04-20T09:10:03.190Z,0.77
2023-04-20T09:12:41.963Z,1.23
2023-04-20T09:15:10.892Z,2.45
2023-04-20T09:17:41.118Z,0.85
2023-04-20T09:20:11.338Z,0.85
2023-04-20T09:22:40.230Z,1.40
2023-04-20T09:25:15.054Z,0.90
2023-04-20T09:27:44.698Z,1.25
2023-04-20T09:30:13.386Z,1.00
2023-04-20T09:32:41.793Z,1.95
2023-04-20T09:35:10.849Z,1.02
2023-04-20T09:37:48.515Z,0.93
2023-04-20T09:40:17.060Z,1.92
2023-04-20T09:42:46.953Z,0.70
2023-04-20T09:45:16.425Z,0.93
2023-04-20T09:47:45.027Z,1.88
2023-04-20T09:50:24.798Z,1.50
2023-04-20T09:52:58.424Z,0.93
2023-04-20T09:55:27.673Z,0.77
2023-04-20T09:57:58.906Z,1.13
2023-04-20T10:00:27.372Z,0.75
2023-04-20T10:02:55.854Z,1.15
2023-04-20T10:05:34.666Z,1.88
2023-04-20T10:08:03.259Z,1.08
2023-04-20T10:10:32.079Z,1.48
2023-04-20T10:13:02.320Z,1.10
2023-04-20T10:15:40.816Z,1.67
2023-04-20T10:18:19.790Z,1.27
2023-04-20T10:20:48.531Z,0.75
2023-04-20T10:23:18.767Z,1.40
2023-04-20T10:25:57.475Z,1.83
2023-04-20T10:28:27.129Z,1.00
2023-04-20T10:30:56.304Z,1.00
2023-04-20T10:33:24.641Z,1.33
2023-04-20T10:35:54.912Z,1.27
2023-04-20T10:38:30.615Z,2.20
2023-04-20T10:40:59.189Z,1.30
2023-04-20T10:43:28.874Z,1.65
2023-04-20T10:45:57.250Z,1.13
2023-04-20T10:48:25.557Z,1.50
2023-04-20T10:50:53.853Z,1.38
2023-04-20T10:53:22.890Z,1.38
2023-04-20T10:56:00.061Z,0.90
2023-04-20T10:58:29.766Z,0.88
2023-04-20T11:01:01.718Z,1.95
2023-04-20T11:03:31.153Z,1.50
2023-04-20T11:06:01.557Z,1.98
2023-04-20T11:08:39.945Z,1.33
2023-04-20T11:11:19.085Z,1.52
2023-04-20T11:13:48.937Z,1.08
2023-04-20T11:16:17.991Z,1.95
2023-04-20T11:18:53.014Z,1.00
2023-04-20T11:23:49.573Z,1.35
2023-04-20T11:26:18.174Z,1.20
2023-04-20T11:28:56.010Z,1.10
2023-04-20T11:31:26.742Z,0.80
2023-04-20T11:33:55.105Z,1.58
2023-04-20T11:36:24.258Z,1.35
2023-04-20T11:38:52.784Z,1.58
2023-04-20T11:41:21.709Z,1.35
2023-04-20T11:43:50.289Z,1.60
2023-04-20T11:46:20.775Z,1.02
2023-04-20T11:48:49.570Z,0.80
2023-04-20T11:51:19.476Z,1.52
2023-04-20T11:53:47.781Z,1.42
2023-04-20T11:56:16.581Z,1.67
2023-04-20T11:58:44.879Z,1.77
2023-04-20T12:01:14.038Z,1.48
2023-04-20T12:03:47.000Z,1.23
2023-04-20T12:06:16.155Z,1.83
2023-04-20T12:08:44.530Z,1.10
2023-04-20T12:11:12.814Z,1.17
2023-04-20T12:13:41.102Z,2.25
2023-04-20T12:16:09.756Z,1.73
2023-04-20T12:18:38.071Z,1.15
2023-04-20T12:21:07.928Z,1.98
2023-04-20T12:23:36.868Z,1.55
2023-04-20T12:26:05.343Z,1.95
2023-04-20T12:28:33.819Z,0.60
2023-04-20T12:31:03.632Z,1.77
2023-04-20T12:33:32.298Z,1.17
2023-04-20T12:36:00.657Z,1.65
2023-04-20T12:38:30.532Z,1.70
2023-04-20T12:40:58.855Z,1.33
2023-04-20T12:43:27.227Z,1.65
2023-04-20T12:45:55.551Z,1.35
2023-04-20T12:48:23.858Z,1.33
2023-04-20T12:50:52.247Z,1.73
2023-04-20T12:53:20.893Z,2.50
2023-04-20T12:55:57.594Z,2.35
2023-04-20T12:58:29.793Z,2.03
2023-04-20T13:00:58.186Z,2.55
2023-04-20T13:03:27.086Z,1.58
2023-04-20T13:05:55.520Z,2.05
2023-04-20T13:08:23.807Z,1.90
2023-04-20T13:10:53.524Z,2.15
2023-04-20T13:13:21.772Z,1.63
2023-04-20T13:15:50.034Z,2.10
2023-04-20T13:18:18.360Z,1.60
2023-04-20T13:20:46.681Z,2.50
2023-04-20T13:23:15.479Z,1.63
2023-04-20T13:25:43.941Z,2.13
2023-04-20T13:28:14.639Z,1.90
2023-04-20T13:30:43.778Z,2.40
2023-04-20T13:33:12.221Z,2.08
2023-04-20T13:35:40.821Z,2.67
2023-04-20T13:38:09.124Z,2.42
2023-04-20T13:40:37.481Z,1.98
2023-04-20T13:43:05.804Z,2.28
2023-04-20T13:45:35.463Z,2.30
2023-04-20T13:48:03.983Z,2.60
2023-04-20T13:50:32.669Z,1.88
2023-04-20T13:53:02.935Z,2.15
2023-04-20T13:55:31.309Z,2.58
2023-04-20T13:57:59.759Z,2.22
2023-04-20T14:00:28.210Z,2.38
2023-04-20T14:02:58.346Z,2.53
2023-04-20T14:05:26.755Z,2.45
2023-04-20T14:07:55.091Z,2.83
2023-04-20T14:10:23.429Z,2.15
2023-04-20T14:12:52.460Z,1.73
2023-04-20T14:15:20.855Z,2.75
2023-04-20T14:17:51.700Z,2.33
2023-04-20T14:20:22.073Z,1.98
2023-04-20T14:22:50.356Z,2.20
2023-04-20T14:25:18.882Z,1.35
2023-04-20T14:27:47.205Z,2.15
2023-04-20T14:30:16.140Z,2.22
2023-04-20T14:32:54.391Z,2.78
2023-04-20T14:35:24.364Z,1.52
2023-04-20T14:37:52.671Z,2.17
2023-04-20T14:40:21.226Z,2.55
2023-04-20T14:42:49.690Z,2.30
2023-04-20T14:45:18.124Z,3.15
2023-04-20T14:47:46.483Z,1.92
2023-04-20T14:50:14.841Z,2.83
2023-04-20T14:52:44.539Z,3.38
2023-04-20T14:55:12.864Z,2.22
2023-04-20T14:57:41.203Z,1.77
2023-04-20T15:00:10.611Z,2.13
2023-04-20T15:02:39.044Z,2.55
2023-04-20T15:05:10.338Z,2.45
2023-04-20T15:07:39.375Z,2.58
2023-04-20T15:10:09.509Z,1.67
2023-04-20T15:12:37.845Z,3.00
2023-04-20T15:15:06.542Z,2.70
2023-04-20T15:17:34.905Z,2.75
2023-04-20T15:20:04.124Z,2.05
2023-04-20T15:22:32.619Z,3.33
2023-04-20T15:25:00.979Z,2.58
2023-04-20T15:27:30.652Z,1.70
2023-04-20T15:29:59.015Z,3.42
2023-04-20T15:32:27.503Z,2.42
2023-04-20T15:34:55.890Z,1.23
2023-04-20T15:37:24.241Z,2.15
2023-04-20T15:39:52.693Z,1.88
2023-04-20T15:42:21.017Z,2.63
2023-04-20T15:44:50.767Z,1.50
2023-04-20T15:47:19.105Z,2.60
2023-04-20T15:49:47.407Z,2.25
2023-04-20T15:52:15.758Z,1.95
2023-04-20T15:54:44.103Z,1.40
2023-04-20T15:57:12.407Z,1.60
2023-04-20T15:59:40.702Z,1.45
2023-04-20T16:02:10.559Z,1.48
2023-04-20T16:04:39.128Z,2.47
2023-04-20T16:07:08.862Z,2.13
2023-04-20T16:09:37.241Z,2.35
2023-04-20T16:12:05.667Z,1.95
2023-04-20T16:14:34.415Z,2.00
2023-04-20T16:17:03.265Z,1.48
2023-04-20T16:19:34.359Z,1.98
2023-04-20T16:22:02.734Z,3.00
2023-04-20T16:24:31.289Z,1.15
2023-04-20T16:27:01.546Z,2.33
2023-04-20T16:29:30.223Z,2.03
2023-04-20T16:31:58.654Z,2.13
2023-04-20T16:34:27.102Z,1.98
2023-04-20T16:36:56.808Z,2.05
2023-04-20T16:39:25.430Z,1.60
2023-04-20T16:41:54.111Z,1.48
2023-04-20T16:44:22.688Z,2.38
2023-04-20T16:46:51.982Z,2.13
2023-04-20T16:49:20.581Z,1.95
2023-04-20T16:51:49.092Z,1.98
2023-04-20T16:54:19.085Z,1.33
2023-04-20T16:56:47.657Z,2.67
2023-04-20T16:59:15.999Z,2.45
2023-04-20T17:01:44.367Z,2.78
2023-04-20T17:04:13.120Z,2.25
2023-04-20T17:06:41.537Z,2.20
2023-04-20T17:09:11.391Z,2.53
2023-04-20T17:11:41.058Z,2.50
2023-04-20T17:14:10.426Z,2.10
2023-04-20T17:16:38.853Z,2.88
2023-04-20T17:19:07.176Z,2.47
2023-04-20T17:21:35.532Z,2.10
2023-04-20T17:24:04.013Z,2.53
2023-04-20T17:26:32.348Z,2.53
2023-04-20T17:29:01.985Z,2.38
2023-04-20T17:31:31.300Z,2.15
2023-04-20T17:33:59.771Z,2.95
2023-04-20T17:36:28.262Z,2.00
2023-04-20T17:38:56.686Z,4.82
2023-04-20T17:41:25.039Z,3.50
2023-04-20T17:43:53.381Z,3.60
2023-04-20T17:46:23.120Z,3.90
2023-04-20T17:48:51.536Z,3.58
2023-04-20T17:51:19.961Z,4.55
2023-04-20T17:53:48.338Z,3.25
2023-04-20T17:56:16.686Z,3.20
2023-04-20T17:58:45.030Z,3.80
2023-04-20T18:01:13.433Z,2.83
2023-04-20T18:03:43.365Z,3.10
2023-04-20T18:06:11.849Z,2.65
2023-04-20T18:08:40.217Z,2.53
2023-04-20T18:11:08.555Z,1.83
2023-04-20T18:13:36.932Z,2.42
2023-04-20T18:16:07.333Z,1.95
2023-04-20T18:18:36.262Z,2.80
2023-04-20T18:21:06.052Z,3.10
2023-04-20T18:23:34.773Z,2.60
2023-04-20T18:26:03.245Z,2.88
2023-04-20T18:28:31.571Z,2.63
2023-04-20T18:31:01.008Z,2.25
2023-04-20T18:33:29.345Z,2.33
2023-04-20T18:35:57.654Z,3.15
2023-04-20T18:38:27.365Z,3.40
2023-04-20T18:40:55.686Z,3.15
2023-04-20T18:43:24.275Z,3.22
2023-04-20T18:45:52.597Z,3.85
2023-04-20T18:48:20.966Z,3.78
2023-04-20T18:50:49.304Z,3.13
2023-04-20T18:53:17.608Z,3.38
2023-04-20T18:55:47.550Z,3.00
2023-04-20T18:58:15.863Z,4.03
2023-04-20T19:00:44.227Z,3.65
2023-04-20T19:03:12.917Z,2.17
2023-04-20T19:05:41.487Z,2.15
2023-04-20T19:08:09.809Z,2.65
2023-04-20T19:10:38.206Z,2.80
2023-04-20T19:13:07.852Z,3.15
2023-04-20T19:15:36.234Z,3.75
2023-04-20T19:18:04.642Z,2.95
2023-04-20T19:20:32.981Z,2.17
2023-04-20T19:23:01.303Z,3.15
2023-04-20T19:25:29.668Z,3.80
2023-04-20T19:27:57.995Z,2.80
2023-04-20T19:30:27.831Z,3.40
2023-04-20T19:32:56.171Z,3.92
2023-04-20T19:35:24.624Z,2.97
2023-04-20T19:37:53.022Z,3.40
2023-04-20T19:40:24.059Z,3.30
2023-04-20T19:42:52.414Z,3.83
2023-04-20T19:45:20.755Z,3.08
2023-04-20T19:47:50.489Z,2.08
2023-04-20T19:50:18.902Z,2.85
2023-04-20T19:52:47.261Z,2.03
2023-04-20T19:55:17.181Z,2.88
2023-04-20T19:57:45.531Z,2.65
2023-04-20T20:00:14.679Z,2.38
2023-04-20T20:02:43.447Z,2.67
2023-04-20T20:05:13.300Z,2.40
2023-04-20T20:07:41.737Z,2.70
2023-04-20T20:10:10.152Z,4.32
2023-04-20T20:12:38.523Z,3.83
2023-04-20T20:15:07.025Z,2.80
2023-04-20T20:17:35.337Z,2.30
2023-04-20T20:20:06.011Z,3.33
2023-04-20T20:22:35.761Z,4.72
2023-04-20T20:25:04.199Z,2.30
2023-04-20T20:27:32.554Z,2.58
2023-04-20T20:30:00.884Z,4.63
2023-04-20T20:32:29.245Z,4.03
2023-04-20T20:34:57.701Z,5.38
2023-04-20T20:37:26.023Z,5.93
2023-04-20T20:39:55.852Z,3.35
2023-04-20T20:42:25.689Z,3.50
2023-04-20T20:44:54.397Z,3.75
2023-04-20T20:47:23.085Z,4.65
2023-04-20T20:49:51.450Z,3.10
2023-04-20T20:52:20.059Z,3.78
2023-04-20T20:54:48.485Z,4.32
2023-04-20T20:57:18.724Z,6.88
2023-04-20T20:59:47.129Z,5.90
2023-04-20T21:02:15.607Z,3.90
2023-04-20T21:04:44.038Z,3.45
2023-04-20T21:07:12.358Z,2.22
2023-04-20T21:09:40.692Z,2.15
2023-04-20T21:12:08.988Z,4.05
2023-04-20T21:14:38.638Z,3.60
2023-04-20T21:17:07.339Z,2.80
2023-04-20T21:19:35.674Z,2.60
2023-04-20T21:22:03.986Z,3.95
2023-04-20T21:24:32.280Z,2.33
2023-04-20T21:27:00.578Z,1.95
2023-04-20T21:29:28.918Z,3.03
2023-04-20T21:31:58.613Z,3.00
2023-04-20T21:34:27.433Z,2.53
2023-04-20T21:36:55.747Z,2.47
2023-04-20T21:39:24.084Z,2.17
2023-04-20T21:41:52.403Z,1.98
2023-04-20T21:44:20.668Z,2.10
2023-04-20T21:46:48.938Z,2.33
2023-04-20T21:49:18.784Z,2.55
2023-04-20T21:51:47.253Z,3.83
2023-04-20T21:54:15.571Z,2.30
2023-04-20T21:56:43.987Z,3.40
2023-04-20T21:59:12.678Z,2.45
2023-04-20T22:01:41.361Z,2.47
2023-04-20T22:04:10.451Z,2.83
2023-04-20T22:06:40.265Z,2.70
2023-04-20T22:09:08.557Z,2.42
2023-04-20T22:11:37.471Z,3.38
2023-04-20T22:14:05.939Z,2.85
2023-04-20T22:16:34.470Z,2.72
2023-04-20T22:19:03.281Z,2.63
2023-04-20T22:21:32.043Z,3.38
2023-04-20T22:24:01.733Z,2.42
2023-04-20T22:26:30.033Z,3.45
2023-04-20T22:28:58.309Z,3.55
2023-04-20T22:31:26.621Z,3.47
2023-04-20T22:33:55.025Z,2.80
2023-04-20T22:36:23.309Z,2.78
2023-04-20T22:38:51.608Z,3.25
2023-04-20T22:41:21.658Z,1.95
2023-04-20T22:43:49.929Z,3.25
2023-04-20T22:46:18.337Z,2.97
2023-04-20T22:48:48.529Z,2.83
2023-04-20T22:51:17.920Z,3.45
2023-04-20T22:53:46.221Z,3.25
2023-04-20T22:56:14.566Z,2.47
2023-04-20T22:58:44.211Z,2.67
2023-04-20T23:01:12.540Z,3.25
2023-04-20T23:03:41.028Z,3.28
2023-04-20T23:06:11.259Z,3.28
2023-04-20T23:08:39.851Z,2.45
2023-04-20T23:11:08.438Z,3.15
2023-04-20T23:13:37.152Z,3.78
2023-04-20T23:16:07.189Z,3.20
2023-04-20T23:18:35.694Z,3.55
2023-04-20T23:21:04.163Z,2.72
2023-04-20T23:23:32.510Z,2.67
2023-04-20T23:26:00.810Z,2.75
2023-04-20T23:28:29.077Z,2.60
2023-04-20T23:30:57.608Z,3.50
2023-04-20T23:33:27.307Z,3.38
2023-04-20T23:35:55.602Z,2.83
2023-04-20T23:38:23.955Z,3.22
2023-04-20T23:40:52.341Z,2.50
2023-04-20T23:43:20.656Z,3.05
2023-04-20T23:45:49.041Z,2.63
2023-04-20T23:48:17.408Z,2.15
2023-04-20T23:50:47.075Z,3.65
2023-04-20T23:53:15.406Z,3.80
2023-04-20T23:55:43.727Z,2.35
2023-04-20T23:58:11.982Z,2.92
